sensor_id;sensor_type;location;lat;lon;timestamp;pressure;altitude;pressure_sealevel;temperature;humidity
6343;BME280;3204;42.698;23.298;2023-04-15T00:02:12;94152.03;;;9.87;68.04
6343;BME280;3204;42.698;23.298;2023-04-15T00:04:38;94161.69;;;9.97;67.73
6343;BME280;3204;42.698;23.298;2023-04-15T00:07:03;94159.94;;;10.01;68.29
6343;BME280;3204;42.698;23.298;2023-04-15T00:09:29;94159.91;;;10.18;66.85
6343;BME280;3204;42.698;23.298;2023-04-15T00:11:54;94156.53;;;10.21;66.94
6343;BME280;3204;42.698;23.298;2023-04-15T00:14:20;94157.19;;;10.18;67.82
6343;BME280;3204;42.698;23.298;2023-04-15T00:16:46;94152.16;;;10.08;68.18
6343;BME280;3204;42.698;23.298;2023-04-15T00:19:11;94146.06;;;10.11;68.46
6343;BME280;3204;42.698;23.298;2023-04-15T00:21:37;94141.16;;;10.04;69.05
6343;BME280;3204;42.698;23.298;2023-04-15T00:24:02;94151.34;;;10.07;69.78
6343;BME280;3204;42.698;23.298;2023-04-15T00:26:28;94147.97;;;10.02;69.49
6343;BME280;3204;42.698;23.298;2023-04-15T00:28:53;94144.66;;;10.05;69.11
6343;BME280;3204;42.698;23.298;2023-04-15T00:31:19;94148.31;;;10.09;68.49
6343;BME280;3204;42.698;23.298;2023-04-15T00:33:44;94152.44;;;10.15;68.49
6343;BME280;3204;42.698;23.298;2023-04-15T00:36:10;94165.97;;;10.15;69.17
6343;BME280;3204;42.698;23.298;2023-04-15T00:38:37;94158.28;;;10.17;70.07
6343;BME280;3204;42.698;23.298;2023-04-15T00:41:02;94164.81;;;10.24;70.21
6343;BME280;3204;42.698;23.298;2023-04-15T00:43:28;94159.41;;;10.24;70.17
6343;BME280;3204;42.698;23.298;2023-04-15T00:45:55;94162.38;;;10.31;70.33
6343;BME280;3204;42.698;23.298;2023-04-15T00:48:23;94149.03;;;10.26;71.48
6343;BME280;3204;42.698;23.298;2023-04-15T00:50:48;94141.53;;;10.32;70.98
6343;BME280;3204;42.698;23.298;2023-04-15T00:53:14;94154.59;;;10.30;71.69
6343;BME280;3204;42.698;23.298;2023-04-15T00:55:39;94148.88;;;10.23;72.31
6343;BME280;3204;42.698;23.298;2023-04-15T00:58:05;94147.00;;;10.15;74.01
6343;BME280;3204;42.698;23.298;2023-04-15T01:00:30;94150.84;;;10.14;73.10
6343;BME280;3204;42.698;23.298;2023-04-15T01:02:56;94159.16;;;9.92;73.66
6343;BME280;3204;42.698;23.298;2023-04-15T01:05:21;94170.66;;;9.89;75.25
6343;BME280;3204;42.698;23.298;2023-04-15T01:07:47;94175.41;;;9.92;75.54
6343;BME280;3204;42.698;23.298;2023-04-15T01:10:13;94173.78;;;9.99;75.41
6343;BME280;3204;42.698;23.298;2023-04-15T01:12:38;94174.59;;;10.08;74.36
6343;BME280;3204;42.698;23.298;2023-04-15T01:15:04;94164.56;;;10.09;75.13
6343;BME280;3204;42.698;23.298;2023-04-15T01:17:30;94158.66;;;10.15;74.61
6343;BME280;3204;42.698;23.298;2023-04-15T01:19:56;94150.22;;;10.08;74.60
6343;BME280;3204;42.698;23.298;2023-04-15T01:22:25;94149.72;;;10.15;74.19
6343;BME280;3204;42.698;23.298;2023-04-15T01:25:00;94154.06;;;10.36;76.63
6343;BME280;3204;42.698;23.298;2023-04-15T01:27:30;94157.34;;;10.21;76.67
6343;BME280;3204;42.698;23.298;2023-04-15T01:29:56;94161.69;;;10.05;77.23
6343;BME280;3204;42.698;23.298;2023-04-15T01:32:22;94157.44;;;9.87;76.57
6343;BME280;3204;42.698;23.298;2023-04-15T01:34:48;94157.13;;;9.89;76.67
6343;BME280;3204;42.698;23.298;2023-04-15T01:37:13;94156.91;;;10.02;75.76
6343;BME280;3204;42.698;23.298;2023-04-15T01:39:39;94157.22;;;10.01;76.49
6343;BME280;3204;42.698;23.298;2023-04-15T01:42:05;94161.38;;;10.07;76.13
6343;BME280;3204;42.698;23.298;2023-04-15T01:44:31;94165.34;;;10.09;76.19
6343;BME280;3204;42.698;23.298;2023-04-15T01:46:56;94169.03;;;10.05;76.13
6343;BME280;3204;42.698;23.298;2023-04-15T01:49:22;94157.06;;;10.06;77.32
6343;BME280;3204;42.698;23.298;2023-04-15T01:51:48;94158.66;;;9.98;77.82
6343;BME280;3204;42.698;23.298;2023-04-15T01:54:13;94163.13;;;9.94;77.57
6343;BME280;3204;42.698;23.298;2023-04-15T01:56:39;94166.16;;;9.93;77.14
6343;BME280;3204;42.698;23.298;2023-04-15T01:59:04;94162.19;;;9.90;77.51
6343;BME280;3204;42.698;23.298;2023-04-15T02:01:30;94172.25;;;9.90;77.48
6343;BME280;3204;42.698;23.298;2023-04-15T02:03:56;94174.97;;;9.90;77.00
6343;BME280;3204;42.698;23.298;2023-04-15T02:06:21;94184.84;;;9.86;77.75
6343;BME280;3204;42.698;23.298;2023-04-15T02:08:47;94181.00;;;9.87;77.03
6343;BME280;3204;42.698;23.298;2023-04-15T02:11:12;94177.97;;;9.88;78.05
6343;BME280;3204;42.698;23.298;2023-04-15T02:13:38;94169.06;;;9.88;78.03
6343;BME280;3204;42.698;23.298;2023-04-15T02:16:04;94176.56;;;9.82;79.49
6343;BME280;3204;42.698;23.298;2023-04-15T02:18:39;94167.28;;;9.92;81.37
6343;BME280;3204;42.698;23.298;2023-04-15T02:21:05;94175.72;;;9.99;80.65
6343;BME280;3204;42.698;23.298;2023-04-15T02:23:31;94172.59;;;9.80;80.78
6343;BME280;3204;42.698;23.298;2023-04-15T02:25:56;94164.81;;;9.70;79.34
6343;BME280;3204;42.698;23.298;2023-04-15T02:28:22;94170.75;;;9.38;79.22
6343;BME280;3204;42.698;23.298;2023-04-15T02:30:48;94168.03;;;9.29;80.88
6343;BME280;3204;42.698;23.298;2023-04-15T02:33:17;94164.09;;;9.10;80.68
6343;BME280;3204;42.698;23.298;2023-04-15T02:35:43;94171.41;;;9.18;80.03
6343;BME280;3204;42.698;23.298;2023-04-15T02:38:10;94174.91;;;9.35;79.52
6343;BME280;3204;42.698;23.298;2023-04-15T02:40:35;94180.00;;;9.20;79.64
6343;BME280;3204;42.698;23.298;2023-04-15T02:43:01;94181.41;;;9.26;78.77
6343;BME280;3204;42.698;23.298;2023-04-15T02:45:27;94186.53;;;9.19;75.68
6343;BME280;3204;42.698;23.298;2023-04-15T02:47:53;94187.94;;;9.08;75.52
6343;BME280;3204;42.698;23.298;2023-04-15T02:50:19;94180.28;;;8.93;75.76
6343;BME280;3204;42.698;23.298;2023-04-15T02:52:45;94184.28;;;8.78;76.66
6343;BME280;3204;42.698;23.298;2023-04-15T02:55:10;94179.94;;;8.69;77.34
6343;BME280;3204;42.698;23.298;2023-04-15T02:57:37;94177.69;;;8.54;77.62
6343;BME280;3204;42.698;23.298;2023-04-15T03:00:04;94178.31;;;8.51;77.95
6343;BME280;3204;42.698;23.298;2023-04-15T03:02:34;94186.91;;;8.44;77.96
6343;BME280;3204;42.698;23.298;2023-04-15T03:05:00;94190.06;;;8.38;79.61
6343;BME280;3204;42.698;23.298;2023-04-15T03:07:25;94190.41;;;8.53;78.80
6343;BME280;3204;42.698;23.298;2023-04-15T03:09:51;94189.31;;;8.54;78.07
6343;BME280;3204;42.698;23.298;2023-04-15T03:12:16;94190.06;;;8.46;78.05
6343;BME280;3204;42.698;23.298;2023-04-15T03:14:42;94202.28;;;8.35;79.23
6343;BME280;3204;42.698;23.298;2023-04-15T03:17:07;94203.19;;;8.22;78.01
6343;BME280;3204;42.698;23.298;2023-04-15T03:19:33;94205.28;;;7.95;79.10
6343;BME280;3204;42.698;23.298;2023-04-15T03:21:58;94193.91;;;7.76;79.89
6343;BME280;3204;42.698;23.298;2023-04-15T03:24:24;94194.06;;;7.79;79.83
6343;BME280;3204;42.698;23.298;2023-04-15T03:26:50;94204.59;;;7.89;78.89
6343;BME280;3204;42.698;23.298;2023-04-15T03:29:16;94207.34;;;7.98;79.36
6343;BME280;3204;42.698;23.298;2023-04-15T03:31:41;94205.56;;;7.93;79.66
6343;BME280;3204;42.698;23.298;2023-04-15T03:34:07;94216.81;;;8.17;78.75
6343;BME280;3204;42.698;23.298;2023-04-15T03:36:32;94217.72;;;8.13;78.89
6343;BME280;3204;42.698;23.298;2023-04-15T03:38:58;94225.09;;;8.21;78.81
6343;BME280;3204;42.698;23.298;2023-04-15T03:41:23;94231.88;;;8.10;79.44
6343;BME280;3204;42.698;23.298;2023-04-15T03:43:49;94232.31;;;8.03;79.42
6343;BME280;3204;42.698;23.298;2023-04-15T03:46:16;94245.41;;;7.88;80.15
6343;BME280;3204;42.698;23.298;2023-04-15T03:48:42;94247.75;;;7.81;80.64
6343;BME280;3204;42.698;23.298;2023-04-15T03:51:07;94251.78;;;7.92;79.87
6343;BME280;3204;42.698;23.298;2023-04-15T03:53:33;94257.31;;;7.87;80.78
6343;BME280;3204;42.698;23.298;2023-04-15T03:55:58;94253.34;;;7.93;80.60
6343;BME280;3204;42.698;23.298;2023-04-15T03:58:24;94254.22;;;7.80;80.61
6343;BME280;3204;42.698;23.298;2023-04-15T04:00:49;94244.19;;;7.72;81.07
6343;BME280;3204;42.698;23.298;2023-04-15T04:03:15;94239.28;;;7.74;81.11
6343;BME280;3204;42.698;23.298;2023-04-15T04:05:41;94244.41;;;7.84;81.05
6343;BME280;3204;42.698;23.298;2023-04-15T04:08:08;94246.38;;;7.92;80.42
6343;BME280;3204;42.698;23.298;2023-04-15T04:10:33;94240.50;;;7.90;79.83
6343;BME280;3204;42.698;23.298;2023-04-15T04:12:59;94247.19;;;7.92;78.92
6343;BME280;3204;42.698;23.298;2023-04-15T04:15:24;94237.53;;;8.00;78.01
6343;BME280;3204;42.698;23.298;2023-04-15T04:17:50;94247.06;;;7.97;78.14
6343;BME280;3204;42.698;23.298;2023-04-15T04:20:15;94260.34;;;7.94;78.21
6343;BME280;3204;42.698;23.298;2023-04-15T04:22:41;94248.94;;;7.97;78.18
6343;BME280;3204;42.698;23.298;2023-04-15T04:25:07;94250.84;;;7.96;78.53
6343;BME280;3204;42.698;23.298;2023-04-15T04:27:34;94258.88;;;8.10;77.83
6343;BME280;3204;42.698;23.298;2023-04-15T04:29:59;94256.31;;;8.05;78.73
6343;BME280;3204;42.698;23.298;2023-04-15T04:32:25;94258.88;;;8.10;78.45
6343;BME280;3204;42.698;23.298;2023-04-15T04:34:51;94263.16;;;8.11;78.04
6343;BME280;3204;42.698;23.298;2023-04-15T04:37:16;94262.16;;;8.29;77.86
6343;BME280;3204;42.698;23.298;2023-04-15T04:39:42;94259.00;;;8.05;79.06
6343;BME280;3204;42.698;23.298;2023-04-15T04:42:07;94261.69;;;8.05;78.74
6343;BME280;3204;42.698;23.298;2023-04-15T04:44:33;94263.63;;;8.13;78.70
6343;BME280;3204;42.698;23.298;2023-04-15T04:46:58;94267.88;;;8.05;78.52
6343;BME280;3204;42.698;23.298;2023-04-15T04:49:24;94264.75;;;8.12;78.19
6343;BME280;3204;42.698;23.298;2023-04-15T04:51:49;94269.53;;;8.15;78.94
6343;BME280;3204;42.698;23.298;2023-04-15T04:54:15;94271.25;;;8.11;77.81
6343;BME280;3204;42.698;23.298;2023-04-15T04:56:41;94276.22;;;8.17;77.21
6343;BME280;3204;42.698;23.298;2023-04-15T04:59:07;94279.59;;;8.23;77.35
6343;BME280;3204;42.698;23.298;2023-04-15T05:01:32;94276.69;;;8.19;77.21
6343;BME280;3204;42.698;23.298;2023-04-15T05:03:58;94282.19;;;8.28;76.56
6343;BME280;3204;42.698;23.298;2023-04-15T05:06:24;94282.09;;;8.19;76.79
6343;BME280;3204;42.698;23.298;2023-04-15T05:08:50;94286.91;;;8.22;76.26
6343;BME280;3204;42.698;23.298;2023-04-15T05:11:16;94301.56;;;8.30;76.02
6343;BME280;3204;42.698;23.298;2023-04-15T05:13:41;94298.25;;;8.33;76.10
6343;BME280;3204;42.698;23.298;2023-04-15T05:16:07;94305.78;;;8.44;75.14
6343;BME280;3204;42.698;23.298;2023-04-15T05:18:33;94307.41;;;8.54;74.01
6343;BME280;3204;42.698;23.298;2023-04-15T05:20:59;94309.41;;;8.79;72.73
6343;BME280;3204;42.698;23.298;2023-04-15T05:23:25;94324.72;;;8.83;72.78
6343;BME280;3204;42.698;23.298;2023-04-15T05:25:50;94315.03;;;8.99;72.66
6343;BME280;3204;42.698;23.298;2023-04-15T05:28:16;94314.59;;;9.06;71.71
6343;BME280;3204;42.698;23.298;2023-04-15T05:30:41;94309.38;;;9.18;70.77
6343;BME280;3204;42.698;23.298;2023-04-15T05:33:07;94309.69;;;9.25;70.74
6343;BME280;3204;42.698;23.298;2023-04-15T05:35:33;94305.91;;;9.51;69.51
6343;BME280;3204;42.698;23.298;2023-04-15T05:37:58;94308.00;;;9.54;68.63
6343;BME280;3204;42.698;23.298;2023-04-15T05:40:24;94305.44;;;9.58;69.68
6343;BME280;3204;42.698;23.298;2023-04-15T05:42:50;94302.25;;;9.56;69.57
6343;BME280;3204;42.698;23.298;2023-04-15T05:45:15;94314.19;;;9.72;69.46
6343;BME280;3204;42.698;23.298;2023-04-15T05:47:41;94310.03;;;9.83;67.93
6343;BME280;3204;42.698;23.298;2023-04-15T05:50:06;94317.38;;;9.91;67.54
6343;BME280;3204;42.698;23.298;2023-04-15T05:52:32;94316.25;;;10.00;67.30
6343;BME280;3204;42.698;23.298;2023-04-15T05:54:57;94317.25;;;10.13;67.51
6343;BME280;3204;42.698;23.298;2023-04-15T05:57:23;94323.22;;;10.44;65.84
6343;BME280;3204;42.698;23.298;2023-04-15T05:59:48;94324.69;;;10.33;65.79
6343;BME280;3204;42.698;23.298;2023-04-15T06:02:16;94322.59;;;10.38;66.61
6343;BME280;3204;42.698;23.298;2023-04-15T06:04:41;94326.84;;;10.65;65.03
6343;BME280;3204;42.698;23.298;2023-04-15T06:07:08;94327.75;;;10.77;64.91
6343;BME280;3204;42.698;23.298;2023-04-15T06:09:33;94329.47;;;10.82;64.95
6343;BME280;3204;42.698;23.298;2023-04-15T06:11:59;94326.97;;;11.06;63.48
6343;BME280;3204;42.698;23.298;2023-04-15T06:14:26;94329.75;;;11.26;63.48
6343;BME280;3204;42.698;23.298;2023-04-15T06:16:51;94330.25;;;11.49;63.73
6343;BME280;3204;42.698;23.298;2023-04-15T06:19:17;94337.38;;;11.62;61.82
6343;BME280;3204;42.698;23.298;2023-04-15T06:21:43;94345.28;;;11.46;61.15
6343;BME280;3204;42.698;23.298;2023-04-15T06:24:08;94346.03;;;11.55;61.26
6343;BME280;3204;42.698;23.298;2023-04-15T06:26:34;94345.38;;;11.58;61.03
6343;BME280;3204;42.698;23.298;2023-04-15T06:29:00;94353.69;;;11.62;61.55
6343;BME280;3204;42.698;23.298;2023-04-15T06:31:25;94351.06;;;11.74;60.80
6343;BME280;3204;42.698;23.298;2023-04-15T06:33:51;94351.97;;;11.98;59.62
6343;BME280;3204;42.698;23.298;2023-04-15T06:36:16;94355.28;;;11.83;58.56
6343;BME280;3204;42.698;23.298;2023-04-15T06:38:42;94356.63;;;11.98;58.56
6343;BME280;3204;42.698;23.298;2023-04-15T06:41:08;94364.63;;;12.35;58.32
6343;BME280;3204;42.698;23.298;2023-04-15T06:43:33;94363.72;;;12.64;56.68
6343;BME280;3204;42.698;23.298;2023-04-15T06:45:59;94359.66;;;12.70;56.78
6343;BME280;3204;42.698;23.298;2023-04-15T06:48:25;94365.38;;;12.89;55.09
6343;BME280;3204;42.698;23.298;2023-04-15T06:50:51;94367.34;;;13.12;55.41
6343;BME280;3204;42.698;23.298;2023-04-15T06:53:17;94368.28;;;13.28;53.92
6343;BME280;3204;42.698;23.298;2023-04-15T06:55:43;94365.09;;;13.50;54.71
6343;BME280;3204;42.698;23.298;2023-04-15T06:58:08;94366.78;;;13.67;53.16
6343;BME280;3204;42.698;23.298;2023-04-15T07:00:34;94357.38;;;13.76;53.12
6343;BME280;3204;42.698;23.298;2023-04-15T07:02:59;94354.94;;;14.11;52.21
6343;BME280;3204;42.698;23.298;2023-04-15T07:05:28;94361.94;;;14.24;51.24
6343;BME280;3204;42.698;23.298;2023-04-15T07:07:53;94360.97;;;14.71;50.02
6343;BME280;3204;42.698;23.298;2023-04-15T07:10:19;94369.50;;;15.13;48.80
6343;BME280;3204;42.698;23.298;2023-04-15T07:12:45;94351.59;;;15.00;48.64
6343;BME280;3204;42.698;23.298;2023-04-15T07:15:11;94362.69;;;14.91;47.46
6343;BME280;3204;42.698;23.298;2023-04-15T07:17:37;94366.22;;;15.35;48.50
6343;BME280;3204;42.698;23.298;2023-04-15T07:20:03;94355.53;;;15.95;46.95
6343;BME280;3204;42.698;23.298;2023-04-15T07:22:29;94367.91;;;15.89;46.03
6343;BME280;3204;42.698;23.298;2023-04-15T07:24:54;94360.00;;;15.53;45.79
6343;BME280;3204;42.698;23.298;2023-04-15T07:27:20;94359.84;;;15.46;46.76
6343;BME280;3204;42.698;23.298;2023-04-15T07:29:45;94360.63;;;15.47;46.26
6343;BME280;3204;42.698;23.298;2023-04-15T07:32:11;94366.97;;;15.51;46.59
6343;BME280;3204;42.698;23.298;2023-04-15T07:34:36;94364.41;;;15.73;46.06
6343;BME280;3204;42.698;23.298;2023-04-15T07:37:02;94355.56;;;15.80;45.56
6343;BME280;3204;42.698;23.298;2023-04-15T07:39:27;94361.56;;;15.85;44.91
6343;BME280;3204;42.698;23.298;2023-04-15T07:41:54;94364.06;;;15.75;44.28
6343;BME280;3204;42.698;23.298;2023-04-15T07:44:20;94360.50;;;15.90;44.93
6343;BME280;3204;42.698;23.298;2023-04-15T07:46:46;94356.56;;;16.60;43.78
6343;BME280;3204;42.698;23.298;2023-04-15T07:49:12;94357.97;;;17.11;42.64
6343;BME280;3204;42.698;23.298;2023-04-15T07:51:37;94365.13;;;16.97;41.53
6343;BME280;3204;42.698;23.298;2023-04-15T07:54:03;94374.72;;;17.06;41.96
6343;BME280;3204;42.698;23.298;2023-04-15T07:56:28;94369.41;;;17.17;41.38
6343;BME280;3204;42.698;23.298;2023-04-15T07:58:54;94372.97;;;16.98;42.18
6343;BME280;3204;42.698;23.298;2023-04-15T08:01:19;94375.94;;;17.09;41.64
6343;BME280;3204;42.698;23.298;2023-04-15T08:03:45;94380.56;;;17.05;40.87
6343;BME280;3204;42.698;23.298;2023-04-15T08:06:11;94382.16;;;17.28;40.58
6343;BME280;3204;42.698;23.298;2023-04-15T08:08:36;94378.13;;;17.41;40.78
6343;BME280;3204;42.698;23.298;2023-04-15T08:11:02;94376.06;;;17.57;39.71
6343;BME280;3204;42.698;23.298;2023-04-15T08:13:27;94377.03;;;17.68;40.50
6343;BME280;3204;42.698;23.298;2023-04-15T08:16:18;94380.97;;;18.45;38.32
6343;BME280;3204;42.698;23.298;2023-04-15T08:18:45;94378.25;;;19.11;37.42
6343;BME280;3204;42.698;23.298;2023-04-15T08:21:11;94384.38;;;19.67;36.33
6343;BME280;3204;42.698;23.298;2023-04-15T08:23:37;94378.72;;;19.53;35.12
6343;BME280;3204;42.698;23.298;2023-04-15T08:26:03;94380.38;;;19.61;35.43
6343;BME280;3204;42.698;23.298;2023-04-15T08:28:29;94388.72;;;19.72;34.33
6343;BME280;3204;42.698;23.298;2023-04-15T08:30:54;94381.88;;;18.86;35.86
6343;BME280;3204;42.698;23.298;2023-04-15T08:33:20;94379.81;;;18.79;36.07
6343;BME280;3204;42.698;23.298;2023-04-15T08:35:46;94378.41;;;17.59;37.08
6343;BME280;3204;42.698;23.298;2023-04-15T08:38:12;94375.63;;;17.14;37.33
6343;BME280;3204;42.698;23.298;2023-04-15T08:40:42;94363.03;;;16.90;37.67
6343;BME280;3204;42.698;23.298;2023-04-15T08:43:10;94363.13;;;16.94;37.83
6343;BME280;3204;42.698;23.298;2023-04-15T08:45:38;94368.34;;;17.21;37.61
6343;BME280;3204;42.698;23.298;2023-04-15T08:48:04;94358.84;;;17.60;37.18
6343;BME280;3204;42.698;23.298;2023-04-15T08:50:31;94366.28;;;17.82;36.87
6343;BME280;3204;42.698;23.298;2023-04-15T08:52:58;94365.28;;;17.94;36.50
6343;BME280;3204;42.698;23.298;2023-04-15T08:55:27;94369.25;;;17.96;37.29
6343;BME280;3204;42.698;23.298;2023-04-15T08:57:54;94360.31;;;18.03;37.63
6343;BME280;3204;42.698;23.298;2023-04-15T09:00:20;94361.00;;;17.96;37.17
6343;BME280;3204;42.698;23.298;2023-04-15T09:02:47;94357.81;;;17.94;37.97
6343;BME280;3204;42.698;23.298;2023-04-15T09:05:13;94350.50;;;18.02;37.31
6343;BME280;3204;42.698;23.298;2023-04-15T09:07:38;94344.16;;;17.72;36.92
6343;BME280;3204;42.698;23.298;2023-04-15T09:10:04;94346.38;;;17.40;37.59
6343;BME280;3204;42.698;23.298;2023-04-15T09:12:33;94342.38;;;17.38;37.45
6343;BME280;3204;42.698;23.298;2023-04-15T09:15:00;94338.38;;;17.54;37.42
6343;BME280;3204;42.698;23.298;2023-04-15T09:17:25;94337.72;;;17.61;37.13
6343;BME280;3204;42.698;23.298;2023-04-15T09:20:08;94339.59;;;18.05;37.30
6343;BME280;3204;42.698;23.298;2023-04-15T09:22:35;94325.34;;;18.26;37.84
6343;BME280;3204;42.698;23.298;2023-04-15T09:25:01;94325.34;;;18.26;36.80
6343;BME280;3204;42.698;23.298;2023-04-15T09:27:27;94329.66;;;17.97;36.28
6343;BME280;3204;42.698;23.298;2023-04-15T09:29:52;94326.06;;;17.93;37.88
6343;BME280;3204;42.698;23.298;2023-04-15T09:32:18;94320.31;;;17.76;38.57
6343;BME280;3204;42.698;23.298;2023-04-15T09:34:45;94335.28;;;17.82;37.03
6343;BME280;3204;42.698;23.298;2023-04-15T09:37:11;94335.34;;;17.85;36.85
6343;BME280;3204;42.698;23.298;2023-04-15T09:39:45;94331.13;;;17.91;36.46
6343;BME280;3204;42.698;23.298;2023-04-15T09:42:11;94328.47;;;18.24;36.19
6343;BME280;3204;42.698;23.298;2023-04-15T09:44:37;94332.94;;;18.06;36.32
6343;BME280;3204;42.698;23.298;2023-04-15T09:47:02;94330.59;;;18.34;36.16
6343;BME280;3204;42.698;23.298;2023-04-15T09:49:28;94334.44;;;18.92;36.03
6343;BME280;3204;42.698;23.298;2023-04-15T09:51:58;94340.97;;;18.77;35.21
6343;BME280;3204;42.698;23.298;2023-04-15T09:54:32;94343.38;;;18.82;35.46
6343;BME280;3204;42.698;23.298;2023-04-15T09:57:04;94326.22;;;18.59;34.07
6343;BME280;3204;42.698;23.298;2023-04-15T09:59:30;94333.28;;;18.60;32.43
6343;BME280;3204;42.698;23.298;2023-04-15T10:01:56;94342.63;;;18.85;31.85
6343;BME280;3204;42.698;23.298;2023-04-15T10:04:22;94336.13;;;19.00;33.59
6343;BME280;3204;42.698;23.298;2023-04-15T10:06:48;94333.47;;;19.11;33.67
6343;BME280;3204;42.698;23.298;2023-04-15T10:09:13;94340.84;;;19.03;34.35
6343;BME280;3204;42.698;23.298;2023-04-15T10:11:39;94339.09;;;18.55;33.48
6343;BME280;3204;42.698;23.298;2023-04-15T10:14:06;94327.38;;;18.32;34.40
6343;BME280;3204;42.698;23.298;2023-04-15T10:16:34;94334.38;;;18.52;34.61
6343;BME280;3204;42.698;23.298;2023-04-15T10:19:05;94328.31;;;18.73;33.49
6343;BME280;3204;42.698;23.298;2023-04-15T10:21:32;94317.63;;;18.97;30.74
6343;BME280;3204;42.698;23.298;2023-04-15T10:23:59;94325.00;;;19.23;30.04
6343;BME280;3204;42.698;23.298;2023-04-15T10:26:26;94311.81;;;19.42;30.15
6343;BME280;3204;42.698;23.298;2023-04-15T10:28:52;94306.50;;;19.67;29.93
6343;BME280;3204;42.698;23.298;2023-04-15T10:31:19;94307.66;;;20.09;29.87
6343;BME280;3204;42.698;23.298;2023-04-15T10:33:46;94300.75;;;20.47;28.04
6343;BME280;3204;42.698;23.298;2023-04-15T10:36:13;94296.84;;;20.51;28.22
6343;BME280;3204;42.698;23.298;2023-04-15T10:38:40;94284.22;;;20.50;27.88
6343;BME280;3204;42.698;23.298;2023-04-15T10:44:01;94299.81;;;21.00;28.76
6343;BME280;3204;42.698;23.298;2023-04-15T10:49:10;94317.63;;;21.55;28.55
6343;BME280;3204;42.698;23.298;2023-04-15T10:51:38;94293.22;;;21.71;28.76
6343;BME280;3204;42.698;23.298;2023-04-15T10:54:14;94300.31;;;21.93;28.30
6343;BME280;3204;42.698;23.298;2023-04-15T10:56:44;94302.25;;;22.21;28.33
6343;BME280;3204;42.698;23.298;2023-04-15T10:59:10;94294.31;;;22.37;27.97
6343;BME280;3204;42.698;23.298;2023-04-15T11:02:11;94297.03;;;22.65;27.67
6343;BME280;3204;42.698;23.298;2023-04-15T11:04:57;94286.69;;;22.76;27.28
6343;BME280;3204;42.698;23.298;2023-04-15T11:12:39;94288.41;;;22.28;27.50
6343;BME280;3204;42.698;23.298;2023-04-15T11:15:30;94289.25;;;22.14;27.40
6343;BME280;3204;42.698;23.298;2023-04-15T11:18:17;94285.28;;;22.19;27.49
6343;BME280;3204;42.698;23.298;2023-04-15T11:20:45;94279.75;;;22.26;27.64
6343;BME280;3204;42.698;23.298;2023-04-15T11:23:11;94281.69;;;22.50;27.62
6343;BME280;3204;42.698;23.298;2023-04-15T11:25:37;94281.19;;;22.72;27.39
6343;BME280;3204;42.698;23.298;2023-04-15T11:28:03;94278.50;;;22.41;27.80
6343;BME280;3204;42.698;23.298;2023-04-15T11:30:31;94276.59;;;22.27;27.35
6343;BME280;3204;42.698;23.298;2023-04-15T11:32:59;94274.66;;;21.96;27.83
6343;BME280;3204;42.698;23.298;2023-04-15T11:35:25;94267.53;;;22.13;27.55
6343;BME280;3204;42.698;23.298;2023-04-15T11:37:51;94268.72;;;22.15;26.43
6343;BME280;3204;42.698;23.298;2023-04-15T11:40:21;94276.66;;;21.78;26.76
6343;BME280;3204;42.698;23.298;2023-04-15T11:43:06;94270.31;;;21.99;27.27
6343;BME280;3204;42.698;23.298;2023-04-15T11:45:32;94269.53;;;22.05;27.91
6343;BME280;3204;42.698;23.298;2023-04-15T11:48:08;94275.00;;;22.26;27.63
6343;BME280;3204;42.698;23.298;2023-04-15T11:50:35;94276.56;;;22.45;26.68
6343;BME280;3204;42.698;23.298;2023-04-15T11:53:03;94270.63;;;22.29;26.66
6343;BME280;3204;42.698;23.298;2023-04-15T11:55:29;94270.25;;;22.30;26.95
6343;BME280;3204;42.698;23.298;2023-04-15T11:58:21;94272.63;;;22.28;26.92
6343;BME280;3204;42.698;23.298;2023-04-15T12:00:56;94271.88;;;22.21;26.73
6343;BME280;3204;42.698;23.298;2023-04-15T12:03:24;94275.03;;;22.05;26.78
6343;BME280;3204;42.698;23.298;2023-04-15T12:11:16;94278.59;;;22.13;26.32
6343;BME280;3204;42.698;23.298;2023-04-15T12:13:53;94270.28;;;22.13;25.76
6343;BME280;3204;42.698;23.298;2023-04-15T12:16:19;94268.34;;;22.13;26.47
6343;BME280;3204;42.698;23.298;2023-04-15T12:18:46;94262.41;;;22.15;26.47
6343;BME280;3204;42.698;23.298;2023-04-15T12:21:12;94266.72;;;22.23;26.50
6343;BME280;3204;42.698;23.298;2023-04-15T12:23:39;94277.41;;;22.17;26.79
6343;BME280;3204;42.698;23.298;2023-04-15T12:26:05;94264.44;;;21.83;25.99
6343;BME280;3204;42.698;23.298;2023-04-15T12:28:33;94269.56;;;21.77;26.19
6343;BME280;3204;42.698;23.298;2023-04-15T12:31:06;94270.72;;;21.62;26.54
6343;BME280;3204;42.698;23.298;2023-04-15T12:33:32;94271.13;;;21.54;26.61
6343;BME280;3204;42.698;23.298;2023-04-15T12:35:58;94269.53;;;21.67;26.52
6343;BME280;3204;42.698;23.298;2023-04-15T12:38:23;94278.59;;;21.39;26.69
6343;BME280;3204;42.698;23.298;2023-04-15T12:40:49;94275.44;;;21.44;27.22
6343;BME280;3204;42.698;23.298;2023-04-15T12:43:15;94275.84;;;21.39;27.12
6343;BME280;3204;42.698;23.298;2023-04-15T12:45:41;94276.22;;;21.55;26.90
6343;BME280;3204;42.698;23.298;2023-04-15T12:48:06;94279.00;;;21.48;27.32
6343;BME280;3204;42.698;23.298;2023-04-15T12:50:34;94282.16;;;21.47;27.15
6343;BME280;3204;42.698;23.298;2023-04-15T12:52:59;94277.44;;;21.44;27.28
6343;BME280;3204;42.698;23.298;2023-04-15T12:55:25;94275.84;;;21.39;27.09
6343;BME280;3204;42.698;23.298;2023-04-15T12:57:50;94282.94;;;21.47;27.05
6343;BME280;3204;42.698;23.298;2023-04-15T13:00:16;94287.66;;;21.61;26.96
6343;BME280;3204;42.698;23.298;2023-04-15T13:02:43;94285.69;;;21.68;26.57
6343;BME280;3204;42.698;23.298;2023-04-15T13:05:08;94282.56;;;21.70;26.74
6343;BME280;3204;42.698;23.298;2023-04-15T13:07:34;94285.72;;;21.82;26.74
6343;BME280;3204;42.698;23.298;2023-04-15T13:10:00;94277.44;;;21.96;26.29
6343;BME280;3204;42.698;23.298;2023-04-15T13:12:26;94275.84;;;22.09;26.42
6343;BME280;3204;42.698;23.298;2023-04-15T13:14:52;94272.25;;;22.19;26.53
6343;BME280;3204;42.698;23.298;2023-04-15T13:17:17;94275.03;;;22.19;26.61
6343;BME280;3204;42.698;23.298;2023-04-15T13:19:44;94267.13;;;22.25;26.35
6343;BME280;3204;42.698;23.298;2023-04-15T13:22:10;94265.56;;;22.13;26.26
6343;BME280;3204;42.698;23.298;2023-04-15T13:24:37;94273.41;;;22.25;26.47
6343;BME280;3204;42.698;23.298;2023-04-15T13:27:03;94267.50;;;22.34;26.10
6343;BME280;3204;42.698;23.298;2023-04-15T13:29:29;94276.97;;;22.36;26.10